Flat Rock, MI (48134)

11:05 AM EDT on March 23, 2017 (GMT -0400)
Huron Woods I | | Change Station

Elev 591 ft 42.08 °N, 83.27 °W | Updated 21 seconds ago

Clear
Clear
34.5 °F
Feels Like 34 °F
N
3.0
Wind Variable Wind from NNE

Today
High -- | Low -- °F
--% Chance of Precip.
Yesterday
High -- | Low -- °F
Precip. -- in
Pressure 30.56 in
Visibility 10.0 miles
Clouds Clear
Windchill 34 °F
Dew Point 20 °F
Humidity 56%
Rainfall 0.00 in
Snow Depth Not available.
7:30 AM 7:49 PM
Waning Crescent, 23% visible
METAR KONZ 231452Z AUTO 14008KT 10SM CLR 00/M06 A3056 RMK AO2 T00021061
Pressure 30.56 in
Visibility 10.0 miles
Clouds Clear
Windchill 34 °F
Dew Point 20 °F
Humidity 56%
Rainfall 0.00 in
Snow Depth Not available.
7:30 AM 7:49 PM
Waning Crescent, 23% visible
METAR KONZ 231452Z AUTO 14008KT 10SM CLR 00/M06 A3056 RMK AO2 T00021061

Get Severe Weather Alerts

Thanks for signing up!

Be on the lookout for a verification email in your inbox.

You'll start receiving the daily forecast at 8 AM.

×

10-Day Weather Forecast

Almanac

Astronomy

Mar. 23, 2017 Rise Set
Actual Time
Civil Twilight
Nautical Twilight
Astronomical Twilight
Moon
Length of Visible Light
Length of Day
Tomorrow will be .
, % of the Moon is Illuminated

Today's Extremes

State Highs State Lows

Community

WunderPhotos

Upload Photos

1,962,540 photos uploaded!

WunderBlog® & News

Nearby

Air Quality

  Air Quality AQ Index Pollutant
Not available.

Snow Depth

Station Depth Elevation

Earthquake Activity

City Distance Mag. Time & Date
Minimum magnitude displayed is 2.5.

Earthquake Activity

City Distance Mag. Time & Date
Minimum magnitude displayed is 2.5.

Coastal Water Temperatures

Place Temperature

Stations

Nearby Weather Stations

Station Location Temp. Windchill Dew Point Humidity Wind Precip. Elev Updated Type
                   

Watches & Warnings

There are currently no watches in effect.